Cape Henry — WBK3240 — position and weather

sailwx.info

Track history (hours):
 
Tides and Currents Weather Stations Pressure Air Temp Water Temp Dewpoint Dewpoint Depression Visibility Wind Speed Wind Dir Waves Ship Positions

Cape Henry

Owner: MORAN TOWING CORPORATION, Philadelphia, PA. More information available from US FCC via Universal Licensing System and Coast Guard Vessel Documentation Center.

Last reported at 2017-Oct-22 22:30 UTC. Time now 2017-Oct-22 23:01 UTC.
Position N 39°53' W 075°11'.

Length 34 m; draft 4 m.

Type: Tug. MMSI: 367126620.

Date/timePositionNaut miles runAvg speedWind from/ knotsBaromVisibWave heightAir tempDewpointWater temp
2017-Oct-22 22:30N 39°53' W 075°11'0 0.0
2017-Oct-22 22:00N 39°53' W 075°11'0 0.0
2017-Oct-22 21:31N 39°53' W 075°11'0 0.0
2017-Oct-22 21:00N 39°53' W 075°11'0 0.0
2017-Oct-22 20:30N 39°53' W 075°11'0 0.0
2017-Oct-22 20:00N 39°53' W 075°11'0 0.0
2017-Oct-22 19:31N 39°53' W 075°11'0 0.0
2017-Oct-22 19:00N 39°53' W 075°11'0 0.0
2017-Oct-22 18:31N 39°53' W 075°11'0 0.0
2017-Oct-22 18:01N 39°53' W 075°11'0 0.0
2017-Oct-22 17:30N 39°53' W 075°11'0 0.0
2017-Oct-22 17:01N 39°53' W 075°11'0 0.0
2017-Oct-22 16:30N 39°53' W 075°11'0 0.0
2017-Oct-22 16:00N 39°53' W 075°11'0 0.0
2017-Oct-22 15:30N 39°53' W 075°11'0 0.0
2017-Oct-22 15:01N 39°53' W 075°11'0 0.0
2017-Oct-22 14:31N 39°53' W 075°11'0 0.0
2017-Oct-22 14:00N 39°53' W 075°11'2 3.3
2017-Oct-22 13:30N 39°52' W 075°12'1 2.9
2017-Oct-22 13:00N 39°51' W 075°14'0 0.0
2017-Oct-22 12:30N 39°51' W 075°14'0 0.5
2017-Oct-22 12:00N 39°51' W 075°14'1 2.9
2017-Oct-22 11:30N 39°52' W 075°13'2 3.6
2017-Oct-22 11:00N 39°53' W 075°11'0 0.0
2017-Oct-22 10:30N 39°53' W 075°11'0 0.0
2017-Oct-22 10:01N 39°53' W 075°11'0 0.0
2017-Oct-22 09:30N 39°53' W 075°11'0 0.0
2017-Oct-22 09:01N 39°53' W 075°11'0 0.0
2017-Oct-22 08:30N 39°53' W 075°11'0 0.0
2017-Oct-22 08:00N 39°53' W 075°11'0 0.0
2017-Oct-22 07:30N 39°53' W 075°11'0 0.0
2017-Oct-22 07:00N 39°53' W 075°11'0 0.0
2017-Oct-22 06:31N 39°53' W 075°11'0 0.0
2017-Oct-22 06:00N 39°53' W 075°11'0 0.0
2017-Oct-22 05:31N 39°53' W 075°11'2 4.1
2017-Oct-22 05:01N 39°52' W 075°13'0 0.6
2017-Oct-22 04:30N 39°52' W 075°13'0 0.0
2017-Oct-22 04:00N 39°52' W 075°13'4 7.1
2017-Oct-22 03:30N 39°53' W 075°09'3 6.3
2017-Oct-22 03:00N 39°56' W 075°08'0 0.6
2017-Oct-22 02:30N 39°56' W 075°08'3 6.4
2017-Oct-22 02:00N 39°53' W 075°09'1 1.9
2017-Oct-22 01:31N 39°53' W 075°11'0 0.0
2017-Oct-22 01:01N 39°53' W 075°11'0 0.0
2017-Oct-22 00:30N 39°53' W 075°11'0 0.0
2017-Oct-22 00:01N 39°53' W 075°11'0 0.0
2017-Oct-21 23:30N 39°53' W 075°11'0 0.0
2017-Oct-21 23:00N 39°53' W 075°11'0 0.0
2017-Oct-21 22:31N 39°53' W 075°11'0 0.0
2017-Oct-21 22:00N 39°53' W 075°11'2 3.5
2017-Oct-21 21:30N 39°53' W 075°08'1 1.2
2017-Oct-21 21:01N 39°54' W 075°08'0 0.1
2017-Oct-21 20:30N 39°54' W 075°08'0 0.0
2017-Oct-21 20:00N 39°54' W 075°08'0 0.0
2017-Oct-21 19:30N 39°54' W 075°08'0 0.0
2017-Oct-21 19:00N 39°54' W 075°08'0 0.0
2017-Oct-21 18:30N 39°54' W 075°08'0 0.0
2017-Oct-21 18:01N 39°54' W 075°08'1 2.4
2017-Oct-21 17:30N 39°55' W 075°08'0 0.3
2017-Oct-21 17:00N 39°55' W 075°08'0 0.9
2017-Oct-21 16:31N 39°55' W 075°08'3 5.1
2017-Oct-21 16:00N 39°53' W 075°11'0 0.0
2017-Oct-21 15:30N 39°53' W 075°11'0 0.0
2017-Oct-21 15:01N 39°53' W 075°11'0 0.0
2017-Oct-21 14:30N 39°53' W 075°11'0 0.0
2017-Oct-21 13:30N 39°53' W 075°11'4 8.1
2017-Oct-21 13:00N 39°51' W 075°15'5 9.9
2017-Oct-21 12:31N 39°50' W 075°22'4 8.9
2017-Oct-21 12:01N 39°48' W 075°26'5 9.7
2017-Oct-21 11:30N 39°44' W 075°30'510.6
2017-Oct-21 11:01N 39°39' W 075°33'5 9.1
2017-Oct-21 10:31N 39°34' W 075°33'5 9.8
2017-Oct-21 10:01N 39°30' W 075°34'5 9.2
2017-Oct-21 09:31N 39°25' W 075°31'510.3
2017-Oct-21 09:01N 39°22' W 075°27'510.3
2017-Oct-21 08:31N 39°18' W 075°22'510.5
2017-Oct-21 08:00N 39°14' W 075°18'510.8
2017-Oct-21 07:31N 39°09' W 075°15'510.8
2017-Oct-21 07:00N 39°04' W 075°11'611.3
2017-Oct-21 06:31N 38°59' W 075°08'2 4.1
2017-Oct-21 06:01N 38°57' W 075°07'510.7
2017-Oct-21 05:31N 39°02' W 075°10'510.3
2017-Oct-21 05:01N 39°07' W 075°13'5 9.8
2017-Oct-21 04:30N 39°11' W 075°16'4 9.0
2017-Oct-21 04:00N 39°15' W 075°19'4 8.3
2017-Oct-21 03:31N 39°18' W 075°23'4 7.6
2017-Oct-21 03:00N 39°21' W 075°26'4 7.3
2017-Oct-21 02:30N 39°23' W 075°29'3 6.9
2017-Oct-21 02:00N 39°26' W 075°32'4 7.3
2017-Oct-21 01:30N 39°29' W 075°34'4 8.4
2017-Oct-21 01:00N 39°34' W 075°33'4 8.9
2017-Oct-21 00:31N 39°38' W 075°34'510.3
2017-Oct-21 00:00N 39°42' W 075°31'510.6
2017-Oct-20 23:30N 39°47' W 075°28'510.8
2017-Oct-20 23:00N 39°50' W 075°22'510.3
2017-Oct-20 22:30N 39°51' W 075°15'510.1
2017-Oct-20 22:00N 39°53' W 075°09'5 9.7
2017-Oct-20 21:30N 39°58' W 075°08'1 2.8
2017-Oct-20 21:01N 39°58' W 075°06'0 0.7
2017-Oct-20 20:31N 39°58' W 075°07'0 0.0
2017-Oct-20 20:00N 39°58' W 075°07'0 0.0
2017-Oct-20 19:30N 39°58' W 075°07'3 6.0
2017-Oct-20 19:01N 39°55' W 075°08'3 5.7
2017-Oct-20 18:30N 39°53' W 075°10'0 0.8
2017-Oct-20 18:00N 39°53' W 075°11'0 0.0
2017-Oct-20 17:31N 39°53' W 075°11'0 0.0
2017-Oct-20 17:00N 39°53' W 075°11'0 0.0
2017-Oct-20 16:31N 39°53' W 075°11'0 0.0
2017-Oct-20 16:00N 39°53' W 075°11'0 0.0
2017-Oct-20 15:31N 39°53' W 075°11'0 0.0
2017-Oct-20 15:00N 39°53' W 075°11'0 0.0
2017-Oct-20 14:30N 39°53' W 075°11'0 0.0
2017-Oct-20 13:30N 39°53' W 075°11'0 0.0
2017-Oct-20 13:00N 39°53' W 075°11'0 0.0
2017-Oct-20 12:30N 39°53' W 075°11'0 0.0
2017-Oct-20 12:00N 39°53' W 075°11'0 0.0
2017-Oct-20 11:30N 39°53' W 075°11'0 0.0
2017-Oct-20 11:00N 39°53' W 075°11'0 0.0
2017-Oct-20 10:30N 39°53' W 075°11'0 0.0
2017-Oct-20 10:00N 39°53' W 075°11'0 0.0
2017-Oct-20 09:30N 39°53' W 075°11'0 0.0
2017-Oct-20 09:01N 39°53' W 075°11'0 0.0
2017-Oct-20 08:31N 39°53' W 075°11'0 0.0
2017-Oct-20 08:00N 39°53' W 075°11'2 4.6
2017-Oct-20 07:30N 39°54' W 075°08'1 1.6
2017-Oct-20 07:00N 39°55' W 075°08'2 4.4
2017-Oct-20 06:30N 39°53' W 075°09'1 2.8
2017-Oct-20 06:00N 39°53' W 075°11'0 0.0
2017-Oct-20 05:30N 39°53' W 075°11'0 0.0
2017-Oct-20 05:01N 39°53' W 075°11'0 0.0
2017-Oct-20 04:31N 39°53' W 075°11'0 0.0
2017-Oct-20 04:00N 39°53' W 075°11'0 0.0
2017-Oct-20 03:30N 39°53' W 075°11'0 0.0
2017-Oct-20 03:01N 39°53' W 075°11'0 0.0
2017-Oct-20 02:30N 39°53' W 075°11'0 0.0
2017-Oct-20 02:00N 39°53' W 075°11'0 0.0
2017-Oct-20 01:30N 39°53' W 075°11'0 0.0
2017-Oct-20 01:00N 39°53' W 075°11'0 0.0
2017-Oct-20 00:30N 39°53' W 075°11'0 0.0
2017-Oct-20 00:00N 39°53' W 075°11'0 0.0
2017-Oct-19 23:30N 39°53' W 075°11'0 0.0
2017-Oct-19 23:00N 39°53' W 075°11'0 0.0
2017-Oct-19 22:30N 39°53' W 075°11'0 0.0
2017-Oct-19 22:00N 39°53' W 075°11'0 0.0
2017-Oct-19 21:30N 39°53' W 075°11'0 0.0
2017-Oct-19 21:00N 39°53' W 075°11'0 0.0
2017-Oct-19 20:30N 39°53' W 075°11'0 0.0
2017-Oct-19 20:00N 39°53' W 075°11'0 0.0
2017-Oct-19 19:30N 39°53' W 075°11'1 2.3
2017-Oct-19 19:01N 39°53' W 075°09'4 8.9
2017-Oct-19 18:31N 39°57' W 075°08'1 2.8
2017-Oct-19 18:00N 39°58' W 075°07'0 0.1
2017-Oct-19 17:30N 39°58' W 075°07'0 0.2
2017-Oct-19 17:00N 39°58' W 075°07'0 0.4
2017-Oct-19 16:30N 39°58' W 075°07'0 0.2
2017-Oct-19 16:00N 39°58' W 075°07'3 5.2
2017-Oct-19 15:30N 39°56' W 075°08'2 3.7
2017-Oct-19 15:00N 39°54' W 075°08'0 1.0
2017-Oct-19 14:31N 39°53' W 075°08'2 3.2
2017-Oct-19 14:00N 39°53' W 075°10'2 3.4
2017-Oct-19 13:30N 39°54' W 075°08'2 3.1
2017-Oct-19 13:00N 39°53' W 075°10'1 1.3
2017-Oct-19 12:31N 39°53' W 075°11'0 0.0
2017-Oct-19 12:00N 39°53' W 075°11'0 0.0
2017-Oct-19 11:30N 39°53' W 075°11'0 0.0
2017-Oct-19 11:00N 39°53' W 075°11'0 0.0
2017-Oct-19 10:30N 39°53' W 075°11'0 0.0
2017-Oct-19 10:00N 39°53' W 075°11'0 0.0
2017-Oct-19 09:30N 39°53' W 075°11'0 0.0
2017-Oct-19 09:01N 39°53' W 075°11'1 1.7
2017-Oct-19 08:30N 39°53' W 075°10'0 0.0
2017-Oct-19 08:00N 39°53' W 075°10'0 0.0
2017-Oct-19 07:31N 39°53' W 075°10'0 0.0
2017-Oct-19 07:00N 39°53' W 075°10'2 4.3
2017-Oct-19 06:30N 39°54' W 075°12'0 0.2
2017-Oct-19 06:00N 39°54' W 075°12'1 2.3
2017-Oct-19 05:31N 39°53' W 075°12'1 2.5
2017-Oct-19 05:01N 39°53' W 075°11'0 0.4
2017-Oct-19 04:30N 39°53' W 075°11'0 0.0
2017-Oct-19 04:01N 39°53' W 075°11'0 0.0
2017-Oct-19 03:30N 39°53' W 075°11'0 0.0
2017-Oct-19 03:01N 39°53' W 075°11'0 0.0
2017-Oct-19 02:31N 39°53' W 075°11'0 0.0
2017-Oct-19 02:01N 39°53' W 075°11'0 0.0
2017-Oct-19 01:30N 39°53' W 075°11'0 0.0
2017-Oct-19 01:01N 39°53' W 075°11'0 0.0
2017-Oct-19 00:30N 39°53' W 075°11'0 0.0
2017-Oct-19 00:00N 39°53' W 075°11'0 0.0
2017-Oct-18 23:31N 39°53' W 075°11'0 0.0
2017-Oct-18 23:00N 39°53' W 075°11'4 7.1
2017-Oct-18 22:30N 39°51' W 075°15'4 8.5
2017-Oct-18 22:00N 39°51' W 075°20'4 9.0
2017-Oct-18 21:30N 39°48' W 075°25'4 8.1
2017-Oct-18 21:01N 39°46' W 075°29'3 6.3
2017-Oct-18 20:30N 39°43' W 075°31'0 0.5
2017-Oct-18 20:00N 39°43' W 075°32'0 0.0
2017-Oct-18 19:30N 39°43' W 075°32'0 0.0
2017-Oct-18 19:00N 39°43' W 075°32'3 6.0
2017-Oct-18 18:30N 39°40' W 075°32'4 8.6
2017-Oct-18 18:00N 39°37' W 075°35'2 3.7
2017-Oct-18 17:30N 39°35' W 075°35'1 1.4
2017-Oct-18 17:00N 39°35' W 075°36'1 2.9
2017-Oct-18 16:30N 39°34' W 075°34'2 4.9
2017-Oct-18 16:00N 39°32' W 075°33'4 7.5
2017-Oct-18 15:31N 39°35' W 075°36'2 4.0
2017-Oct-18 15:00N 39°34' W 075°33'8 8.1
2017-Oct-18 14:01N 39°42' W 075°31'2 3.1
2017-Oct-18 13:30N 39°43' W 075°32'0 0.0
2017-Oct-18 13:01N 39°43' W 075°32'0 0.0
2017-Oct-18 12:31N 39°43' W 075°32'0 0.0
2017-Oct-18 12:00N 39°43' W 075°32'0 0.0
2017-Oct-18 11:31N 39°43' W 075°32'0 0.0
2017-Oct-18 11:01N 39°43' W 075°32'0 0.9
2017-Oct-18 10:31N 39°43' W 075°31'0 0.0
2017-Oct-18 10:00N 39°43' W 075°31'0 0.0
2017-Oct-18 09:31N 39°43' W 075°31'0 0.0
2017-Oct-18 09:00N 39°43' W 075°31'0 0.0
2017-Oct-18 08:31N 39°43' W 075°31'0 0.0
2017-Oct-18 08:01N 39°43' W 075°31'0 0.0
2017-Oct-18 07:30N 39°43' W 075°31'0 0.0
2017-Oct-18 07:01N 39°43' W 075°31'0 0.0
2017-Oct-18 06:30N 39°43' W 075°31'0 0.0
2017-Oct-18 06:01N 39°43' W 075°31'1 1.4
2017-Oct-18 05:31N 39°43' W 075°30'510.2
2017-Oct-18 05:01N 39°47' W 075°27'1 2.6
2017-Oct-18 04:30N 39°48' W 075°25'0 0.0
2017-Oct-18 04:00N 39°48' W 075°25'1 3.0
2017-Oct-18 03:31N 39°47' W 075°27'1 2.2
2017-Oct-18 03:01N 39°48' W 075°26'0 0.0
2017-Oct-18 02:30N 39°48' W 075°26'2 3.8
2017-Oct-18 02:00N 39°49' W 075°24'4 7.6
2017-Oct-18 01:30N 39°51' W 075°19'4 8.3
2017-Oct-18 01:00N 39°52' W 075°14'3 6.1
2017-Oct-18 00:31N 39°53' W 075°10'3 6.9
2017-Oct-18 00:00N 39°56' W 075°08'4 9.0
2017-Oct-17 23:30N 39°59' W 075°04'510.3
2017-Oct-17 23:00N 40°03' W 074°59'510.5
2017-Oct-17 22:30N 40°05' W 074°53'4 9.0
2017-Oct-17 22:01N 40°07' W 074°48'2 4.5
2017-Oct-17 21:30N 40°08' W 074°45'0 0.3
2017-Oct-17 21:00N 40°08' W 074°45'4 8.3
2017-Oct-17 20:31N 40°06' W 074°50'4 8.6
2017-Oct-17 20:01N 40°04' W 074°55'4 7.7
2017-Oct-17 19:31N 40°02' W 074°59'4 7.8
2017-Oct-17 19:01N 39°60' W 075°04'4 8.1
2017-Oct-17 18:31N 39°58' W 075°08'4 8.6
2017-Oct-17 18:01N 39°53' W 075°08'3 5.0
2017-Oct-17 17:31N 39°53' W 075°12'0 0.0
2017-Oct-17 17:01N 39°53' W 075°12'0 0.0
2017-Oct-17 16:30N 39°53' W 075°12'0 0.0
2017-Oct-17 16:00N 39°53' W 075°12'0 0.1
2017-Oct-17 15:30N 39°53' W 075°12'1 1.7
2017-Oct-17 15:00N 39°53' W 075°11'0 0.0
2017-Oct-17 14:31N 39°53' W 075°11'0 0.0
2017-Oct-17 14:00N 39°53' W 075°11'0 0.0
2017-Oct-17 13:30N 39°53' W 075°11'0 0.0
2017-Oct-17 13:00N 39°53' W 075°11'0 0.0
2017-Oct-17 12:31N 39°53' W 075°11'0 0.0
2017-Oct-17 12:01N 39°53' W 075°11'0 0.0
2017-Oct-17 11:31N 39°53' W 075°11'0 0.0
2017-Oct-17 11:00N 39°53' W 075°11'0 0.0
2017-Oct-17 10:30N 39°53' W 075°11'0 0.0
2017-Oct-17 10:01N 39°53' W 075°11'0 0.0
2017-Oct-17 09:31N 39°53' W 075°11'0 0.0
2017-Oct-17 09:00N 39°53' W 075°11'0 0.0
2017-Oct-17 08:31N 39°53' W 075°11'0 0.0
2017-Oct-17 08:01N 39°53' W 075°11'0 0.0
2017-Oct-17 07:30N 39°53' W 075°11'0 0.0
2017-Oct-17 07:00N 39°53' W 075°11'0 0.0
2017-Oct-17 06:31N 39°53' W 075°11'0 0.0
2017-Oct-17 06:01N 39°53' W 075°11'0 0.0
2017-Oct-17 05:31N 39°53' W 075°11'0 0.0
2017-Oct-17 05:01N 39°53' W 075°11'0 0.0
2017-Oct-17 04:31N 39°53' W 075°11'0 0.0
2017-Oct-17 04:00N 39°53' W 075°11'0 0.0
2017-Oct-17 03:31N 39°53' W 075°11'0 0.0
2017-Oct-17 03:01N 39°53' W 075°11'0 0.0
2017-Oct-17 02:30N 39°53' W 075°11'0 0.0
2017-Oct-17 02:00N 39°53' W 075°11'0 0.0
2017-Oct-17 01:31N 39°53' W 075°11'0 0.0
2017-Oct-17 01:00N 39°53' W 075°11'0 0.0
2017-Oct-17 00:30N 39°53' W 075°11'0 0.0
2017-Oct-17 00:01N 39°53' W 075°11'0 0.0
2017-Oct-16 23:30N 39°53' W 075°11'0 0.0
2017-Oct-16 23:00N 39°53' W 075°11'0 0.0
2017-Oct-16 22:31N 39°53' W 075°11'0 0.0
2017-Oct-16 22:00N 39°53' W 075°11'0 0.0
2017-Oct-16 21:30N 39°53' W 075°11'0 0.0
2017-Oct-16 21:00N 39°53' W 075°11'0 0.0
2017-Oct-16 20:31N 39°53' W 075°11'0 0.0
2017-Oct-16 20:00N 39°53' W 075°11'0 0.0
2017-Oct-16 19:30N 39°53' W 075°11'0 0.0
2017-Oct-16 19:00N 39°53' W 075°11'0 0.0
2017-Oct-16 18:30N 39°53' W 075°11'2 4.1
2017-Oct-16 18:01N 39°54' W 075°08'1 2.4
2017-Oct-16 17:30N 39°55' W 075°08'2 3.2
2017-Oct-16 17:00N 39°53' W 075°08'2 3.6
2017-Oct-16 16:30N 39°53' W 075°11'0 0.0
2017-Oct-16 16:00N 39°53' W 075°11'0 0.0
2017-Oct-16 15:31N 39°53' W 075°11'0 0.0
2017-Oct-16 15:01N 39°53' W 075°11'0 0.0
2017-Oct-16 14:01N 39°53' W 075°11'0 0.0
2017-Oct-16 13:30N 39°53' W 075°11'0 0.0
2017-Oct-16 13:01N 39°53' W 075°11'0 0.0
2017-Oct-16 12:30N 39°53' W 075°11'0 0.0
2017-Oct-16 12:01N 39°53' W 075°11'0 0.0
2017-Oct-16 11:31N 39°53' W 075°11'0 0.0
2017-Oct-16 11:01N 39°53' W 075°11'0 0.0
2017-Oct-16 10:31N 39°53' W 075°11'0 0.0
2017-Oct-16 10:01N 39°53' W 075°11'0 0.0
2017-Oct-16 09:31N 39°53' W 075°11'0 0.0
2017-Oct-16 09:01N 39°53' W 075°11'0 0.0
2017-Oct-16 08:31N 39°53' W 075°11'0 0.0
2017-Oct-16 08:01N 39°53' W 075°11'0 0.0
2017-Oct-16 07:31N 39°53' W 075°11'0 0.0
2017-Oct-16 07:01N 39°53' W 075°11'0 0.0
2017-Oct-16 06:31N 39°53' W 075°11'0 0.0
2017-Oct-16 06:00N 39°53' W 075°11'0 0.0
2017-Oct-16 05:31N 39°53' W 075°11'0 0.0
2017-Oct-16 05:01N 39°53' W 075°11'0 0.0
2017-Oct-16 04:30N 39°53' W 075°11'0 0.0
2017-Oct-16 04:01N 39°53' W 075°11'0 0.0
2017-Oct-16 03:31N 39°53' W 075°11'0 0.0
2017-Oct-16 03:00N 39°53' W 075°11'0 0.0
2017-Oct-16 02:30N 39°53' W 075°11'0 0.0
2017-Oct-16 02:01N 39°53' W 075°11'0 0.0
2017-Oct-16 01:30N 39°53' W 075°11'0 0.0
2017-Oct-16 01:01N 39°53' W 075°11'0 0.0
2017-Oct-16 00:30N 39°53' W 075°11'0 0.0
2017-Oct-16 00:01N 39°53' W 075°11'0 0.0
2017-Oct-15 23:31N 39°53' W 075°11'0 0.0
2017-Oct-15 23:00N 39°53' W 075°11'0 0.0
2017-Oct-15 22:31N 39°53' W 075°11'0 0.0
2017-Oct-15 22:01N 39°53' W 075°11'0 0.0
2017-Oct-15 21:31N 39°53' W 075°11'0 0.0
2017-Oct-15 21:01N 39°53' W 075°11'0 0.0
2017-Oct-15 20:31N 39°53' W 075°11'0 0.0
2017-Oct-15 20:01N 39°53' W 075°11'0 0.0
2017-Oct-15 19:30N 39°53' W 075°11'0 0.0
2017-Oct-15 19:01N 39°53' W 075°11'0 0.0
2017-Oct-15 18:31N 39°53' W 075°11'0 0.0
2017-Oct-15 18:00N 39°53' W 075°11'0 0.0
2017-Oct-15 17:30N 39°53' W 075°11'0 0.0
2017-Oct-15 17:01N 39°53' W 075°11'0 0.0
2017-Oct-15 16:31N 39°53' W 075°11'0 0.0
2017-Oct-15 16:01N 39°53' W 075°11'1 1.7
2017-Oct-15 15:31N 39°53' W 075°12'0 0.3
2017-Oct-15 15:01N 39°54' W 075°12'1 0.8
2017-Oct-15 14:00N 39°53' W 075°11'0 0.0
2017-Oct-15 13:31N 39°53' W 075°11'0 0.0
2017-Oct-15 13:00N 39°53' W 075°11'0 0.0
2017-Oct-15 12:30N 39°53' W 075°11'0 0.0
2017-Oct-15 12:00N 39°53' W 075°11'0 0.0
2017-Oct-15 11:30N 39°53' W 075°11'0 0.0
2017-Oct-15 11:00N 39°53' W 075°11'0 0.0
2017-Oct-15 10:30N 39°53' W 075°11'0 0.0
2017-Oct-15 10:01N 39°53' W 075°11'0 0.0
2017-Oct-15 09:30N 39°53' W 075°11'0 0.0
2017-Oct-15 09:00N 39°53' W 075°11'0 0.0
2017-Oct-15 08:30N 39°53' W 075°11'0 0.0
2017-Oct-15 08:00N 39°53' W 075°11'0 0.0
2017-Oct-15 07:30N 39°53' W 075°11'0 0.0
2017-Oct-15 07:00N 39°53' W 075°11'0 0.0
2017-Oct-15 06:30N 39°53' W 075°11'0 0.0
2017-Oct-15 06:00N 39°53' W 075°11'0 0.0
2017-Oct-15 05:30N 39°53' W 075°11'0 0.0
2017-Oct-15 05:00N 39°53' W 075°11'0 0.0
2017-Oct-15 04:30N 39°53' W 075°11'0 0.1
2017-Oct-15 04:00N 39°53' W 075°11'3 5.9
2017-Oct-15 03:30N 39°55' W 075°08'0 0.2
2017-Oct-15 03:00N 39°55' W 075°08'1 2.0
2017-Oct-15 02:30N 39°54' W 075°08'1 2.1
2017-Oct-15 02:00N 39°55' W 075°08'3 5.9
2017-Oct-15 01:30N 39°53' W 075°11'0 0.0
2017-Oct-15 01:01N 39°53' W 075°11'0 0.0
2017-Oct-15 00:30N 39°53' W 075°11'0 0.0
2017-Oct-15 00:01N 39°53' W 075°11'0 0.0
2017-Oct-14 23:30N 39°53' W 075°11'0 0.0
2017-Oct-14 23:00N 39°53' W 075°11'0 0.0
2017-Oct-14 22:30N 39°53' W 075°11'0 0.0
2017-Oct-14 22:01N 39°53' W 075°11'0 0.0
2017-Oct-14 21:30N 39°53' W 075°11'0 0.0
2017-Oct-14 21:00N 39°53' W 075°11'0 0.0
2017-Oct-14 20:30N 39°53' W 075°11'0 0.0
2017-Oct-14 20:00N 39°53' W 075°11'0 0.0
2017-Oct-14 19:30N 39°53' W 075°11'0 0.0
2017-Oct-14 19:00N 39°53' W 075°11'0 0.0
2017-Oct-14 18:30N 39°53' W 075°11'0 0.0
2017-Oct-14 18:00N 39°53' W 075°11'0 0.0
2017-Oct-14 17:30N 39°53' W 075°11'0 0.0
2017-Oct-14 17:00N 39°53' W 075°11'0 0.0
2017-Oct-14 16:30N 39°53' W 075°11'0 0.0
2017-Oct-14 16:01N 39°53' W 075°11'0 0.0
2017-Oct-14 15:30N 39°53' W 075°11'0 0.0
2017-Oct-14 15:00N 39°53' W 075°11'0 0.0
2017-Oct-14 14:30N 39°53' W 075°11'0 0.0
2017-Oct-14 14:00N 39°53' W 075°11'0 0.0
2017-Oct-14 13:30N 39°53' W 075°11'0 0.0
2017-Oct-14 13:00N 39°53' W 075°11'0 0.0
2017-Oct-14 12:30N 39°53' W 075°11'0 0.0
2017-Oct-14 12:00N 39°53' W 075°11'0 0.0
2017-Oct-14 11:30N 39°53' W 075°11'0 0.0
2017-Oct-14 11:00N 39°53' W 075°11'0 0.0
2017-Oct-14 10:30N 39°53' W 075°11'0 0.0
2017-Oct-14 10:00N 39°53' W 075°11'0 0.0
2017-Oct-14 09:30N 39°53' W 075°11'0 0.0
2017-Oct-14 09:00N 39°53' W 075°11'0 0.0
2017-Oct-14 08:30N 39°53' W 075°11'0 0.0
2017-Oct-14 08:00N 39°53' W 075°11'0 0.0
2017-Oct-14 07:30N 39°53' W 075°11'0 0.0
2017-Oct-14 07:00N 39°53' W 075°11'0 0.0
2017-Oct-14 06:30N 39°53' W 075°11'0 0.0
2017-Oct-14 06:00N 39°53' W 075°11'0 0.0
2017-Oct-14 05:30N 39°53' W 075°11'0 0.0
2017-Oct-14 05:00N 39°53' W 075°11'0 0.0
2017-Oct-14 04:30N 39°53' W 075°11'2 4.5
2017-Oct-14 04:00N 39°52' W 075°13'0 0.0
2017-Oct-14 03:30N 39°52' W 075°13'0 0.0
2017-Oct-14 02:31N 39°52' W 075°13'0 0.5
2017-Oct-14 02:30N 39°52' W 075°13'0 0.2
2017-Oct-14 02:00N 39°52' W 075°13'2 2.9
2017-Oct-14 01:28N 39°51' W 075°15'0 0.3
2017-Oct-14 01:01N 39°51' W 075°15'2 3.1
2017-Oct-14 00:30N 39°52' W 075°13'0 0.0
2017-Oct-14 00:00N 39°52' W 075°13'5 9.2
2017-Oct-13 23:30N 39°51' W 075°19'510.5
2017-Oct-13 23:00N 39°48' W 075°25'510.6
2017-Oct-13 22:30N 39°45' W 075°30'510.9
2017-Oct-13 22:00N 39°40' W 075°32'5 9.5
2017-Oct-13 21:30N 39°35' W 075°33'2 3.4
2017-Oct-13 21:01N 39°35' W 075°36'0 0.1
2017-Oct-13 20:30N 39°35' W 075°36'2 3.2
2017-Oct-13 20:00N 39°35' W 075°34'4 7.6
2017-Oct-13 19:31N 39°39' W 075°33'4 8.8
2017-Oct-13 19:00N 39°43' W 075°31'4 8.7
2017-Oct-13 18:31N 39°47' W 075°28'5 9.8
2017-Oct-13 18:00N 39°50' W 075°23'611.2
2017-Oct-13 17:30N 39°51' W 075°16'4 8.8
2017-Oct-13 17:00N 39°53' W 075°11'0 0.0
2017-Oct-13 16:30N 39°53' W 075°11'0 0.0
2017-Oct-13 16:00N 39°53' W 075°11'0 0.0
2017-Oct-13 15:30N 39°53' W 075°11'0 0.0
2017-Oct-13 15:01N 39°53' W 075°11'0 0.0
2017-Oct-13 14:30N 39°53' W 075°11'0 0.0
2017-Oct-13 14:00N 39°53' W 075°11'0 0.0
2017-Oct-13 13:30N 39°53' W 075°11'0 0.0
2017-Oct-13 13:00N 39°53' W 075°11'1 1.5
2017-Oct-13 12:31N 39°53' W 075°10'3 7.0
2017-Oct-13 12:00N 39°56' W 075°08'4 7.7
2017-Oct-13 11:30N 39°59' W 075°04'4 8.4
2017-Oct-13 11:00N 40°02' W 075°00'4 8.6
2017-Oct-13 10:30N 40°04' W 074°56'4 8.1
2017-Oct-13 10:00N 40°06' W 074°51'4 6.8
2017-Oct-13 09:29N 40°07' W 074°47'2 2.5
2017-Oct-13 08:53N 40°08' W 074°45'0 1.3
2017-Oct-13 08:30N 40°08' W 074°46'3 6.3
2017-Oct-13 08:00N 40°07' W 074°50'5 9.8
2017-Oct-13 07:30N 40°04' W 074°55'510.7
2017-Oct-13 07:00N 40°01' W 075°01'4 8.0
2017-Oct-13 06:30N 39°59' W 075°05'0 0.9
2017-Oct-13 06:00N 39°59' W 075°05'0 0.0
2017-Oct-13 05:30N 39°59' W 075°05'0 0.1
2017-Oct-13 05:00N 39°59' W 075°05'3 6.6
2017-Oct-13 04:30N 39°56' W 075°08'3 6.6
2017-Oct-13 04:00N 39°53' W 075°09'2 4.8
2017-Oct-13 03:30N 39°53' W 075°12'1 2.0
2017-Oct-13 03:00N 39°54' W 075°12'2 3.1
2017-Oct-13 02:30N 39°53' W 075°11'0 0.3
2017-Oct-13 02:00N 39°53' W 075°11'0 0.0
2017-Oct-13 01:31N 39°53' W 075°11'0 0.0
2017-Oct-13 01:00N 39°53' W 075°11'0 0.0
2017-Oct-13 00:31N 39°53' W 075°11'0 0.0
2017-Oct-13 00:00N 39°53' W 075°11'0 0.0
2017-Oct-12 23:31N 39°53' W 075°11'0 0.0
2017-Oct-12 23:01N 39°53' W 075°11'  
Track history (hours):
 
Tides and Currents Weather Stations Pressure Air Temp Water Temp Dewpoint Dewpoint Depression Visibility Wind Speed Wind Dir Waves Ship Positions

Cape Henry

Owner: MORAN TOWING CORPORATION, Philadelphia, PA. More information available from US FCC via Universal Licensing System and Coast Guard Vessel Documentation Center.

Last reported at 2017-Oct-22 22:30 UTC. Time now 2017-Oct-22 23:01 UTC.
Position N 39°53' W 075°11'.

Length 34 m; draft 4 m.

Type: Tug. MMSI: 367126620.

Date/timePositionNaut miles runAvg speedWind from/ knotsBaromVisibWave heightAir tempDewpointWater temp
2017-Oct-22 22:30N 39°53' W 075°11'0 0.0
2017-Oct-22 22:00N 39°53' W 075°11'0 0.0
2017-Oct-22 21:31N 39°53' W 075°11'0 0.0
2017-Oct-22 21:00N 39°53' W 075°11'0 0.0
2017-Oct-22 20:30N 39°53' W 075°11'0 0.0
2017-Oct-22 20:00N 39°53' W 075°11'0 0.0
2017-Oct-22 19:31N 39°53' W 075°11'0 0.0
2017-Oct-22 19:00N 39°53' W 075°11'0 0.0
2017-Oct-22 18:31N 39°53' W 075°11'0 0.0
2017-Oct-22 18:01N 39°53' W 075°11'0 0.0
2017-Oct-22 17:30N 39°53' W 075°11'0 0.0
2017-Oct-22 17:01N 39°53' W 075°11'0 0.0
2017-Oct-22 16:30N 39°53' W 075°11'0 0.0
2017-Oct-22 16:00N 39°53' W 075°11'0 0.0
2017-Oct-22 15:30N 39°53' W 075°11'0 0.0
2017-Oct-22 15:01N 39°53' W 075°11'0 0.0
2017-Oct-22 14:31N 39°53' W 075°11'0 0.0
2017-Oct-22 14:00N 39°53' W 075°11'2 3.3
2017-Oct-22 13:30N 39°52' W 075°12'1 2.9
2017-Oct-22 13:00N 39°51' W 075°14'0 0.0
2017-Oct-22 12:30N 39°51' W 075°14'0 0.5
2017-Oct-22 12:00N 39°51' W 075°14'1 2.9
2017-Oct-22 11:30N 39°52' W 075°13'2 3.6
2017-Oct-22 11:00N 39°53' W 075°11'0 0.0
2017-Oct-22 10:30N 39°53' W 075°11'0 0.0
2017-Oct-22 10:01N 39°53' W 075°11'0 0.0
2017-Oct-22 09:30N 39°53' W 075°11'0 0.0
2017-Oct-22 09:01N 39°53' W 075°11'0 0.0
2017-Oct-22 08:30N 39°53' W 075°11'0 0.0
2017-Oct-22 08:00N 39°53' W 075°11'0 0.0
2017-Oct-22 07:30N 39°53' W 075°11'0 0.0
2017-Oct-22 07:00N 39°53' W 075°11'0 0.0
2017-Oct-22 06:31N 39°53' W 075°11'0 0.0
2017-Oct-22 06:00N 39°53' W 075°11'0 0.0
2017-Oct-22 05:31N 39°53' W 075°11'2 4.1
2017-Oct-22 05:01N 39°52' W 075°13'0 0.6
2017-Oct-22 04:30N 39°52' W 075°13'0 0.0
2017-Oct-22 04:00N 39°52' W 075°13'4 7.1
2017-Oct-22 03:30N 39°53' W 075°09'3 6.3
2017-Oct-22 03:00N 39°56' W 075°08'0 0.6
2017-Oct-22 02:30N 39°56' W 075°08'3 6.4
2017-Oct-22 02:00N 39°53' W 075°09'1 1.9
2017-Oct-22 01:31N 39°53' W 075°11'0 0.0
2017-Oct-22 01:01N 39°53' W 075°11'0 0.0
2017-Oct-22 00:30N 39°53' W 075°11'0 0.0
2017-Oct-22 00:01N 39°53' W 075°11'0 0.0
2017-Oct-21 23:30N 39°53' W 075°11'0 0.0
2017-Oct-21 23:00N 39°53' W 075°11'0 0.0
2017-Oct-21 22:31N 39°53' W 075°11'0 0.0
2017-Oct-21 22:00N 39°53' W 075°11'2 3.5
2017-Oct-21 21:30N 39°53' W 075°08'1 1.2
2017-Oct-21 21:01N 39°54' W 075°08'0 0.1
2017-Oct-21 20:30N 39°54' W 075°08'0 0.0
2017-Oct-21 20:00N 39°54' W 075°08'0 0.0
2017-Oct-21 19:30N 39°54' W 075°08'0 0.0
2017-Oct-21 19:00N 39°54' W 075°08'0 0.0
2017-Oct-21 18:30N 39°54' W 075°08'0 0.0
2017-Oct-21 18:01N 39°54' W 075°08'1 2.4
2017-Oct-21 17:30N 39°55' W 075°08'0 0.3
2017-Oct-21 17:00N 39°55' W 075°08'0 0.9
2017-Oct-21 16:31N 39°55' W 075°08'3 5.1
2017-Oct-21 16:00N 39°53' W 075°11'0 0.0
2017-Oct-21 15:30N 39°53' W 075°11'0 0.0
2017-Oct-21 15:01N 39°53' W 075°11'0 0.0
2017-Oct-21 14:30N 39°53' W 075°11'0 0.0
2017-Oct-21 13:30N 39°53' W 075°11'4 8.1
2017-Oct-21 13:00N 39°51' W 075°15'5 9.9
2017-Oct-21 12:31N 39°50' W 075°22'4 8.9
2017-Oct-21 12:01N 39°48' W 075°26'5 9.7
2017-Oct-21 11:30N 39°44' W 075°30'510.6
2017-Oct-21 11:01N 39°39' W 075°33'5 9.1
2017-Oct-21 10:31N 39°34' W 075°33'5 9.8
2017-Oct-21 10:01N 39°30' W 075°34'5 9.2
2017-Oct-21 09:31N 39°25' W 075°31'510.3
2017-Oct-21 09:01N 39°22' W 075°27'510.3
2017-Oct-21 08:31N 39°18' W 075°22'510.5
2017-Oct-21 08:00N 39°14' W 075°18'510.8
2017-Oct-21 07:31N 39°09' W 075°15'510.8
2017-Oct-21 07:00N 39°04' W 075°11'611.3
2017-Oct-21 06:31N 38°59' W 075°08'2 4.1
2017-Oct-21 06:01N 38°57' W 075°07'510.7
2017-Oct-21 05:31N 39°02' W 075°10'510.3
2017-Oct-21 05:01N 39°07' W 075°13'5 9.8
2017-Oct-21 04:30N 39°11' W 075°16'4 9.0
2017-Oct-21 04:00N 39°15' W 075°19'4 8.3
2017-Oct-21 03:31N 39°18' W 075°23'4 7.6
2017-Oct-21 03:00N 39°21' W 075°26'4 7.3
2017-Oct-21 02:30N 39°23' W 075°29'3 6.9
2017-Oct-21 02:00N 39°26' W 075°32'4 7.3
2017-Oct-21 01:30N 39°29' W 075°34'4 8.4
2017-Oct-21 01:00N 39°34' W 075°33'4 8.9
2017-Oct-21 00:31N 39°38' W 075°34'510.3
2017-Oct-21 00:00N 39°42' W 075°31'510.6
2017-Oct-20 23:30N 39°47' W 075°28'510.8
2017-Oct-20 23:00N 39°50' W 075°22'510.3
2017-Oct-20 22:30N 39°51' W 075°15'510.1
2017-Oct-20 22:00N 39°53' W 075°09'5 9.7
2017-Oct-20 21:30N 39°58' W 075°08'1 2.8
2017-Oct-20 21:01N 39°58' W 075°06'0 0.7
2017-Oct-20 20:31N 39°58' W 075°07'0 0.0
2017-Oct-20 20:00N 39°58' W 075°07'0 0.0
2017-Oct-20 19:30N 39°58' W 075°07'3 6.0
2017-Oct-20 19:01N 39°55' W 075°08'3 5.7
2017-Oct-20 18:30N 39°53' W 075°10'0 0.8
2017-Oct-20 18:00N 39°53' W 075°11'0 0.0
2017-Oct-20 17:31N 39°53' W 075°11'0 0.0
2017-Oct-20 17:00N 39°53' W 075°11'0 0.0
2017-Oct-20 16:31N 39°53' W 075°11'0 0.0
2017-Oct-20 16:00N 39°53' W 075°11'0 0.0
2017-Oct-20 15:31N 39°53' W 075°11'0 0.0
2017-Oct-20 15:00N 39°53' W 075°11'0 0.0
2017-Oct-20 14:30N 39°53' W 075°11'0 0.0
2017-Oct-20 13:30N 39°53' W 075°11'0 0.0
2017-Oct-20 13:00N 39°53' W 075°11'0 0.0
2017-Oct-20 12:30N 39°53' W 075°11'0 0.0
2017-Oct-20 12:00N 39°53' W 075°11'0 0.0
2017-Oct-20 11:30N 39°53' W 075°11'0 0.0
2017-Oct-20 11:00N 39°53' W 075°11'0 0.0
2017-Oct-20 10:30N 39°53' W 075°11'0 0.0
2017-Oct-20 10:00N 39°53' W 075°11'0 0.0
2017-Oct-20 09:30N 39°53' W 075°11'0 0.0
2017-Oct-20 09:01N 39°53' W 075°11'0 0.0
2017-Oct-20 08:31N 39°53' W 075°11'0 0.0
2017-Oct-20 08:00N 39°53' W 075°11'2 4.6
2017-Oct-20 07:30N 39°54' W 075°08'1 1.6
2017-Oct-20 07:00N 39°55' W 075°08'2 4.4
2017-Oct-20 06:30N 39°53' W 075°09'1 2.8
2017-Oct-20 06:00N 39°53' W 075°11'0 0.0
2017-Oct-20 05:30N 39°53' W 075°11'0 0.0
2017-Oct-20 05:01N 39°53' W 075°11'0 0.0
2017-Oct-20 04:31N 39°53' W 075°11'0 0.0
2017-Oct-20 04:00N 39°53' W 075°11'0 0.0
2017-Oct-20 03:30N 39°53' W 075°11'0 0.0
2017-Oct-20 03:01N 39°53' W 075°11'0 0.0
2017-Oct-20 02:30N 39°53' W 075°11'0 0.0
2017-Oct-20 02:00N 39°53' W 075°11'0 0.0
2017-Oct-20 01:30N 39°53' W 075°11'0 0.0
2017-Oct-20 01:00N 39°53' W 075°11'0 0.0
2017-Oct-20 00:30N 39°53' W 075°11'0 0.0
2017-Oct-20 00:00N 39°53' W 075°11'0 0.0
2017-Oct-19 23:30N 39°53' W 075°11'0 0.0
2017-Oct-19 23:00N 39°53' W 075°11'0 0.0
2017-Oct-19 22:30N 39°53' W 075°11'0 0.0
2017-Oct-19 22:00N 39°53' W 075°11'0 0.0
2017-Oct-19 21:30N 39°53' W 075°11'0 0.0
2017-Oct-19 21:00N 39°53' W 075°11'0 0.0
2017-Oct-19 20:30N 39°53' W 075°11'0 0.0
2017-Oct-19 20:00N 39°53' W 075°11'0 0.0
2017-Oct-19 19:30N 39°53' W 075°11'1 2.3
2017-Oct-19 19:01N 39°53' W 075°09'4 8.9
2017-Oct-19 18:31N 39°57' W 075°08'1 2.8
2017-Oct-19 18:00N 39°58' W 075°07'0 0.1
2017-Oct-19 17:30N 39°58' W 075°07'0 0.2
2017-Oct-19 17:00N 39°58' W 075°07'0 0.4
2017-Oct-19 16:30N 39°58' W 075°07'0 0.2
2017-Oct-19 16:00N 39°58' W 075°07'3 5.2
2017-Oct-19 15:30N 39°56' W 075°08'2 3.7
2017-Oct-19 15:00N 39°54' W 075°08'0 1.0
2017-Oct-19 14:31N 39°53' W 075°08'2 3.2
2017-Oct-19 14:00N 39°53' W 075°10'2 3.4
2017-Oct-19 13:30N 39°54' W 075°08'2 3.1
2017-Oct-19 13:00N 39°53' W 075°10'1 1.3
2017-Oct-19 12:31N 39°53' W 075°11'0 0.0
2017-Oct-19 12:00N 39°53' W 075°11'0 0.0
2017-Oct-19 11:30N 39°53' W 075°11'0 0.0
2017-Oct-19 11:00N 39°53' W 075°11'0 0.0
2017-Oct-19 10:30N 39°53' W 075°11'0 0.0
2017-Oct-19 10:00N 39°53' W 075°11'0 0.0
2017-Oct-19 09:30N 39°53' W 075°11'0 0.0
2017-Oct-19 09:01N 39°53' W 075°11'1 1.7
2017-Oct-19 08:30N 39°53' W 075°10'0 0.0
2017-Oct-19 08:00N 39°53' W 075°10'0 0.0
2017-Oct-19 07:31N 39°53' W 075°10'0 0.0
2017-Oct-19 07:00N 39°53' W 075°10'2 4.3
2017-Oct-19 06:30N 39°54' W 075°12'0 0.2
2017-Oct-19 06:00N 39°54' W 075°12'1 2.3
2017-Oct-19 05:31N 39°53' W 075°12'1 2.5
2017-Oct-19 05:01N 39°53' W 075°11'0 0.4
2017-Oct-19 04:30N 39°53' W 075°11'0 0.0
2017-Oct-19 04:01N 39°53' W 075°11'0 0.0
2017-Oct-19 03:30N 39°53' W 075°11'0 0.0
2017-Oct-19 03:01N 39°53' W 075°11'0 0.0
2017-Oct-19 02:31N 39°53' W 075°11'0 0.0
2017-Oct-19 02:01N 39°53' W 075°11'0 0.0
2017-Oct-19 01:30N 39°53' W 075°11'0 0.0
2017-Oct-19 01:01N 39°53' W 075°11'0 0.0
2017-Oct-19 00:30N 39°53' W 075°11'0 0.0
2017-Oct-19 00:00N 39°53' W 075°11'0 0.0
2017-Oct-18 23:31N 39°53' W 075°11'0 0.0
2017-Oct-18 23:00N 39°53' W 075°11'4 7.1
2017-Oct-18 22:30N 39°51' W 075°15'4 8.5
2017-Oct-18 22:00N 39°51' W 075°20'4 9.0
2017-Oct-18 21:30N 39°48' W 075°25'4 8.1
2017-Oct-18 21:01N 39°46' W 075°29'3 6.3
2017-Oct-18 20:30N 39°43' W 075°31'0 0.5
2017-Oct-18 20:00N 39°43' W 075°32'0 0.0
2017-Oct-18 19:30N 39°43' W 075°32'0 0.0
2017-Oct-18 19:00N 39°43' W 075°32'3 6.0
2017-Oct-18 18:30N 39°40' W 075°32'4 8.6
2017-Oct-18 18:00N 39°37' W 075°35'2 3.7
2017-Oct-18 17:30N 39°35' W 075°35'1 1.4
2017-Oct-18 17:00N 39°35' W 075°36'1 2.9
2017-Oct-18 16:30N 39°34' W 075°34'2 4.9
2017-Oct-18 16:00N 39°32' W 075°33'4 7.5
2017-Oct-18 15:31N 39°35' W 075°36'2 4.0
2017-Oct-18 15:00N 39°34' W 075°33'8 8.1
2017-Oct-18 14:01N 39°42' W 075°31'2 3.1
2017-Oct-18 13:30N 39°43' W 075°32'0 0.0
2017-Oct-18 13:01N 39°43' W 075°32'0 0.0
2017-Oct-18 12:31N 39°43' W 075°32'0 0.0
2017-Oct-18 12:00N 39°43' W 075°32'0 0.0
2017-Oct-18 11:31N 39°43' W 075°32'0 0.0
2017-Oct-18 11:01N 39°43' W 075°32'0 0.9
2017-Oct-18 10:31N 39°43' W 075°31'0 0.0
2017-Oct-18 10:00N 39°43' W 075°31'0 0.0
2017-Oct-18 09:31N 39°43' W 075°31'0 0.0
2017-Oct-18 09:00N 39°43' W 075°31'0 0.0
2017-Oct-18 08:31N 39°43' W 075°31'0 0.0
2017-Oct-18 08:01N 39°43' W 075°31'0 0.0
2017-Oct-18 07:30N 39°43' W 075°31'0 0.0
2017-Oct-18 07:01N 39°43' W 075°31'0 0.0
2017-Oct-18 06:30N 39°43' W 075°31'0 0.0
2017-Oct-18 06:01N 39°43' W 075°31'1 1.4
2017-Oct-18 05:31N 39°43' W 075°30'510.2
2017-Oct-18 05:01N 39°47' W 075°27'1 2.6
2017-Oct-18 04:30N 39°48' W 075°25'0 0.0
2017-Oct-18 04:00N 39°48' W 075°25'1 3.0
2017-Oct-18 03:31N 39°47' W 075°27'1 2.2
2017-Oct-18 03:01N 39°48' W 075°26'0 0.0
2017-Oct-18 02:30N 39°48' W 075°26'2 3.8
2017-Oct-18 02:00N 39°49' W 075°24'4 7.6
2017-Oct-18 01:30N 39°51' W 075°19'4 8.3
2017-Oct-18 01:00N 39°52' W 075°14'3 6.1
2017-Oct-18 00:31N 39°53' W 075°10'3 6.9
2017-Oct-18 00:00N 39°56' W 075°08'4 9.0
2017-Oct-17 23:30N 39°59' W 075°04'510.3
2017-Oct-17 23:00N 40°03' W 074°59'510.5
2017-Oct-17 22:30N 40°05' W 074°53'4 9.0
2017-Oct-17 22:01N 40°07' W 074°48'2 4.5
2017-Oct-17 21:30N 40°08' W 074°45'0 0.3
2017-Oct-17 21:00N 40°08' W 074°45'4 8.3
2017-Oct-17 20:31N 40°06' W 074°50'4 8.6
2017-Oct-17 20:01N 40°04' W 074°55'4 7.7
2017-Oct-17 19:31N 40°02' W 074°59'4 7.8
2017-Oct-17 19:01N 39°60' W 075°04'4 8.1
2017-Oct-17 18:31N 39°58' W 075°08'4 8.6
2017-Oct-17 18:01N 39°53' W 075°08'3 5.0
2017-Oct-17 17:31N 39°53' W 075°12'0 0.0
2017-Oct-17 17:01N 39°53' W 075°12'0 0.0
2017-Oct-17 16:30N 39°53' W 075°12'0 0.0
2017-Oct-17 16:00N 39°53' W 075°12'0 0.1
2017-Oct-17 15:30N 39°53' W 075°12'1 1.7
2017-Oct-17 15:00N 39°53' W 075°11'0 0.0
2017-Oct-17 14:31N 39°53' W 075°11'0 0.0
2017-Oct-17 14:00N 39°53' W 075°11'0 0.0
2017-Oct-17 13:30N 39°53' W 075°11'0 0.0
2017-Oct-17 13:00N 39°53' W 075°11'0 0.0
2017-Oct-17 12:31N 39°53' W 075°11'0 0.0
2017-Oct-17 12:01N 39°53' W 075°11'0 0.0
2017-Oct-17 11:31N 39°53' W 075°11'0 0.0
2017-Oct-17 11:00N 39°53' W 075°11'0 0.0
2017-Oct-17 10:30N 39°53' W 075°11'0 0.0
2017-Oct-17 10:01N 39°53' W 075°11'0 0.0
2017-Oct-17 09:31N 39°53' W 075°11'0 0.0
2017-Oct-17 09:00N 39°53' W 075°11'0 0.0
2017-Oct-17 08:31N 39°53' W 075°11'0 0.0
2017-Oct-17 08:01N 39°53' W 075°11'0 0.0
2017-Oct-17 07:30N 39°53' W 075°11'0 0.0
2017-Oct-17 07:00N 39°53' W 075°11'0 0.0
2017-Oct-17 06:31N 39°53' W 075°11'0 0.0
2017-Oct-17 06:01N 39°53' W 075°11'0 0.0
2017-Oct-17 05:31N 39°53' W 075°11'0 0.0
2017-Oct-17 05:01N 39°53' W 075°11'0 0.0
2017-Oct-17 04:31N 39°53' W 075°11'0 0.0
2017-Oct-17 04:00N 39°53' W 075°11'0 0.0
2017-Oct-17 03:31N 39°53' W 075°11'0 0.0
2017-Oct-17 03:01N 39°53' W 075°11'0 0.0
2017-Oct-17 02:30N 39°53' W 075°11'0 0.0
2017-Oct-17 02:00N 39°53' W 075°11'0 0.0
2017-Oct-17 01:31N 39°53' W 075°11'0 0.0
2017-Oct-17 01:00N 39°53' W 075°11'0 0.0
2017-Oct-17 00:30N 39°53' W 075°11'0 0.0
2017-Oct-17 00:01N 39°53' W 075°11'0 0.0
2017-Oct-16 23:30N 39°53' W 075°11'0 0.0
2017-Oct-16 23:00N 39°53' W 075°11'0 0.0
2017-Oct-16 22:31N 39°53' W 075°11'0 0.0
2017-Oct-16 22:00N 39°53' W 075°11'0 0.0
2017-Oct-16 21:30N 39°53' W 075°11'0 0.0
2017-Oct-16 21:00N 39°53' W 075°11'0 0.0
2017-Oct-16 20:31N 39°53' W 075°11'0 0.0
2017-Oct-16 20:00N 39°53' W 075°11'0 0.0
2017-Oct-16 19:30N 39°53' W 075°11'0 0.0
2017-Oct-16 19:00N 39°53' W 075°11'0 0.0
2017-Oct-16 18:30N 39°53' W 075°11'2 4.1
2017-Oct-16 18:01N 39°54' W 075°08'1 2.4
2017-Oct-16 17:30N 39°55' W 075°08'2 3.2
2017-Oct-16 17:00N 39°53' W 075°08'2 3.6
2017-Oct-16 16:30N 39°53' W 075°11'0 0.0
2017-Oct-16 16:00N 39°53' W 075°11'0 0.0
2017-Oct-16 15:31N 39°53' W 075°11'0 0.0
2017-Oct-16 15:01N 39°53' W 075°11'0 0.0
2017-Oct-16 14:01N 39°53' W 075°11'0 0.0
2017-Oct-16 13:30N 39°53' W 075°11'0 0.0
2017-Oct-16 13:01N 39°53' W 075°11'0 0.0
2017-Oct-16 12:30N 39°53' W 075°11'0 0.0
2017-Oct-16 12:01N 39°53' W 075°11'0 0.0
2017-Oct-16 11:31N 39°53' W 075°11'0 0.0
2017-Oct-16 11:01N 39°53' W 075°11'0 0.0
2017-Oct-16 10:31N 39°53' W 075°11'0 0.0
2017-Oct-16 10:01N 39°53' W 075°11'0 0.0
2017-Oct-16 09:31N 39°53' W 075°11'0 0.0
2017-Oct-16 09:01N 39°53' W 075°11'0 0.0
2017-Oct-16 08:31N 39°53' W 075°11'0 0.0
2017-Oct-16 08:01N 39°53' W 075°11'0 0.0
2017-Oct-16 07:31N 39°53' W 075°11'0 0.0
2017-Oct-16 07:01N 39°53' W 075°11'0 0.0
2017-Oct-16 06:31N 39°53' W 075°11'0 0.0
2017-Oct-16 06:00N 39°53' W 075°11'0 0.0
2017-Oct-16 05:31N 39°53' W 075°11'0 0.0
2017-Oct-16 05:01N 39°53' W 075°11'0 0.0
2017-Oct-16 04:30N 39°53' W 075°11'0 0.0
2017-Oct-16 04:01N 39°53' W 075°11'0 0.0
2017-Oct-16 03:31N 39°53' W 075°11'0 0.0
2017-Oct-16 03:00N 39°53' W 075°11'0 0.0
2017-Oct-16 02:30N 39°53' W 075°11'0 0.0
2017-Oct-16 02:01N 39°53' W 075°11'0 0.0
2017-Oct-16 01:30N 39°53' W 075°11'0 0.0
2017-Oct-16 01:01N 39°53' W 075°11'0 0.0
2017-Oct-16 00:30N 39°53' W 075°11'0 0.0
2017-Oct-16 00:01N 39°53' W 075°11'0 0.0
2017-Oct-15 23:31N 39°53' W 075°11'0 0.0
2017-Oct-15 23:00N 39°53' W 075°11'0 0.0
2017-Oct-15 22:31N 39°53' W 075°11'0 0.0
2017-Oct-15 22:01N 39°53' W 075°11'0 0.0
2017-Oct-15 21:31N 39°53' W 075°11'0 0.0
2017-Oct-15 21:01N 39°53' W 075°11'0 0.0
2017-Oct-15 20:31N 39°53' W 075°11'0 0.0
2017-Oct-15 20:01N 39°53' W 075°11'0 0.0
2017-Oct-15 19:30N 39°53' W 075°11'0 0.0
2017-Oct-15 19:01N 39°53' W 075°11'0 0.0
2017-Oct-15 18:31N 39°53' W 075°11'0 0.0
2017-Oct-15 18:00N 39°53' W 075°11'0 0.0
2017-Oct-15 17:30N 39°53' W 075°11'0 0.0
2017-Oct-15 17:01N 39°53' W 075°11'0 0.0
2017-Oct-15 16:31N 39°53' W 075°11'0 0.0
2017-Oct-15 16:01N 39°53' W 075°11'1 1.7
2017-Oct-15 15:31N 39°53' W 075°12'0 0.3
2017-Oct-15 15:01N 39°54' W 075°12'1 0.8
2017-Oct-15 14:00N 39°53' W 075°11'0 0.0
2017-Oct-15 13:31N 39°53' W 075°11'0 0.0
2017-Oct-15 13:00N 39°53' W 075°11'0 0.0
2017-Oct-15 12:30N 39°53' W 075°11'0 0.0
2017-Oct-15 12:00N 39°53' W 075°11'0 0.0
2017-Oct-15 11:30N 39°53' W 075°11'0 0.0
2017-Oct-15 11:00N 39°53' W 075°11'0 0.0
2017-Oct-15 10:30N 39°53' W 075°11'0 0.0
2017-Oct-15 10:01N 39°53' W 075°11'0 0.0
2017-Oct-15 09:30N 39°53' W 075°11'0 0.0
2017-Oct-15 09:00N 39°53' W 075°11'0 0.0
2017-Oct-15 08:30N 39°53' W 075°11'0 0.0
2017-Oct-15 08:00N 39°53' W 075°11'0 0.0
2017-Oct-15 07:30N 39°53' W 075°11'0 0.0
2017-Oct-15 07:00N 39°53' W 075°11'0 0.0
2017-Oct-15 06:30N 39°53' W 075°11'0 0.0
2017-Oct-15 06:00N 39°53' W 075°11'0 0.0
2017-Oct-15 05:30N 39°53' W 075°11'0 0.0
2017-Oct-15 05:00N 39°53' W 075°11'0 0.0
2017-Oct-15 04:30N 39°53' W 075°11'0 0.1
2017-Oct-15 04:00N 39°53' W 075°11'3 5.9
2017-Oct-15 03:30N 39°55' W 075°08'0 0.2
2017-Oct-15 03:00N 39°55' W 075°08'1 2.0
2017-Oct-15 02:30N 39°54' W 075°08'1 2.1
2017-Oct-15 02:00N 39°55' W 075°08'3 5.9
2017-Oct-15 01:30N 39°53' W 075°11'0 0.0
2017-Oct-15 01:01N 39°53' W 075°11'0 0.0
2017-Oct-15 00:30N 39°53' W 075°11'0 0.0
2017-Oct-15 00:01N 39°53' W 075°11'0 0.0
2017-Oct-14 23:30N 39°53' W 075°11'0 0.0
2017-Oct-14 23:00N 39°53' W 075°11'0 0.0
2017-Oct-14 22:30N 39°53' W 075°11'0 0.0
2017-Oct-14 22:01N 39°53' W 075°11'0 0.0
2017-Oct-14 21:30N 39°53' W 075°11'0 0.0
2017-Oct-14 21:00N 39°53' W 075°11'0 0.0
2017-Oct-14 20:30N 39°53' W 075°11'0 0.0
2017-Oct-14 20:00N 39°53' W 075°11'0 0.0
2017-Oct-14 19:30N 39°53' W 075°11'0 0.0
2017-Oct-14 19:00N 39°53' W 075°11'0 0.0
2017-Oct-14 18:30N 39°53' W 075°11'0 0.0
2017-Oct-14 18:00N 39°53' W 075°11'0 0.0
2017-Oct-14 17:30N 39°53' W 075°11'0 0.0
2017-Oct-14 17:00N 39°53' W 075°11'0 0.0
2017-Oct-14 16:30N 39°53' W 075°11'0 0.0
2017-Oct-14 16:01N 39°53' W 075°11'0 0.0
2017-Oct-14 15:30N 39°53' W 075°11'0 0.0
2017-Oct-14 15:00N 39°53' W 075°11'0 0.0
2017-Oct-14 14:30N 39°53' W 075°11'0 0.0
2017-Oct-14 14:00N 39°53' W 075°11'0 0.0
2017-Oct-14 13:30N 39°53' W 075°11'0 0.0
2017-Oct-14 13:00N 39°53' W 075°11'0 0.0
2017-Oct-14 12:30N 39°53' W 075°11'0 0.0
2017-Oct-14 12:00N 39°53' W 075°11'0 0.0
2017-Oct-14 11:30N 39°53' W 075°11'0 0.0
2017-Oct-14 11:00N 39°53' W 075°11'0 0.0
2017-Oct-14 10:30N 39°53' W 075°11'0 0.0
2017-Oct-14 10:00N 39°53' W 075°11'0 0.0
2017-Oct-14 09:30N 39°53' W 075°11'0 0.0
2017-Oct-14 09:00N 39°53' W 075°11'0 0.0
2017-Oct-14 08:30N 39°53' W 075°11'0 0.0
2017-Oct-14 08:00N 39°53' W 075°11'0 0.0
2017-Oct-14 07:30N 39°53' W 075°11'0 0.0
2017-Oct-14 07:00N 39°53' W 075°11'0 0.0
2017-Oct-14 06:30N 39°53' W 075°11'0 0.0
2017-Oct-14 06:00N 39°53' W 075°11'0 0.0
2017-Oct-14 05:30N 39°53' W 075°11'0 0.0
2017-Oct-14 05:00N 39°53' W 075°11'0 0.0
2017-Oct-14 04:30N 39°53' W 075°11'2 4.5
2017-Oct-14 04:00N 39°52' W 075°13'0 0.0
2017-Oct-14 03:30N 39°52' W 075°13'0 0.0
2017-Oct-14 02:31N 39°52' W 075°13'0 0.5
2017-Oct-14 02:30N 39°52' W 075°13'0 0.2
2017-Oct-14 02:00N 39°52' W 075°13'2 2.9
2017-Oct-14 01:28N 39°51' W 075°15'0 0.3
2017-Oct-14 01:01N 39°51' W 075°15'2 3.1
2017-Oct-14 00:30N 39°52' W 075°13'0 0.0
2017-Oct-14 00:00N 39°52' W 075°13'5 9.2
2017-Oct-13 23:30N 39°51' W 075°19'510.5
2017-Oct-13 23:00N 39°48' W 075°25'510.6
2017-Oct-13 22:30N 39°45' W 075°30'510.9
2017-Oct-13 22:00N 39°40' W 075°32'5 9.5
2017-Oct-13 21:30N 39°35' W 075°33'2 3.4
2017-Oct-13 21:01N 39°35' W 075°36'0 0.1
2017-Oct-13 20:30N 39°35' W 075°36'2 3.2
2017-Oct-13 20:00N 39°35' W 075°34'4 7.6
2017-Oct-13 19:31N 39°39' W 075°33'4 8.8
2017-Oct-13 19:00N 39°43' W 075°31'4 8.7
2017-Oct-13 18:31N 39°47' W 075°28'5 9.8
2017-Oct-13 18:00N 39°50' W 075°23'611.2
2017-Oct-13 17:30N 39°51' W 075°16'4 8.8
2017-Oct-13 17:00N 39°53' W 075°11'0 0.0
2017-Oct-13 16:30N 39°53' W 075°11'0 0.0
2017-Oct-13 16:00N 39°53' W 075°11'0 0.0
2017-Oct-13 15:30N 39°53' W 075°11'0 0.0
2017-Oct-13 15:01N 39°53' W 075°11'0 0.0
2017-Oct-13 14:30N 39°53' W 075°11'0 0.0
2017-Oct-13 14:00N 39°53' W 075°11'0 0.0
2017-Oct-13 13:30N 39°53' W 075°11'0 0.0
2017-Oct-13 13:00N 39°53' W 075°11'1 1.5
2017-Oct-13 12:31N 39°53' W 075°10'3 7.0
2017-Oct-13 12:00N 39°56' W 075°08'4 7.7
2017-Oct-13 11:30N 39°59' W 075°04'4 8.4
2017-Oct-13 11:00N 40°02' W 075°00'4 8.6
2017-Oct-13 10:30N 40°04' W 074°56'4 8.1
2017-Oct-13 10:00N 40°06' W 074°51'4 6.8
2017-Oct-13 09:29N 40°07' W 074°47'2 2.5
2017-Oct-13 08:53N 40°08' W 074°45'0 1.3
2017-Oct-13 08:30N 40°08' W 074°46'3 6.3
2017-Oct-13 08:00N 40°07' W 074°50'5 9.8
2017-Oct-13 07:30N 40°04' W 074°55'510.7
2017-Oct-13 07:00N 40°01' W 075°01'4 8.0
2017-Oct-13 06:30N 39°59' W 075°05'0 0.9
2017-Oct-13 06:00N 39°59' W 075°05'0 0.0
2017-Oct-13 05:30N 39°59' W 075°05'0 0.1
2017-Oct-13 05:00N 39°59' W 075°05'3 6.6
2017-Oct-13 04:30N 39°56' W 075°08'3 6.6
2017-Oct-13 04:00N 39°53' W 075°09'2 4.8
2017-Oct-13 03:30N 39°53' W 075°12'1 2.0
2017-Oct-13 03:00N 39°54' W 075°12'2 3.1
2017-Oct-13 02:30N 39°53' W 075°11'0 0.3
2017-Oct-13 02:00N 39°53' W 075°11'0 0.0
2017-Oct-13 01:31N 39°53' W 075°11'0 0.0
2017-Oct-13 01:00N 39°53' W 075°11'0 0.0
2017-Oct-13 00:31N 39°53' W 075°11'0 0.0
2017-Oct-13 00:00N 39°53' W 075°11'0 0.0
2017-Oct-12 23:31N 39°53' W 075°11'0 0.0
2017-Oct-12 23:01N 39°53' W 075°11'  

Dump ship's entire track history